Time;durP1;ratioP1;P1;durP2;ratioP2;P2;SDS_P1;SDS_P2;PMS_P1;PMS_P2;Temp;Humidity;BMP_temperature;BMP_pressure;BME280_temperature;BME280_humidity;BME280_pressure;Samples;Min_cycle;Max_cycle;Signal;HPM_P1;HPM_P2
2023/09/24 00:01:13;;;;;;;29.55;20.80;;;11.70;99.90;;;;;;4958475;28;20358;-84
2023/09/24 00:03:39;;;;;;;38.85;23.33;;;11.60;99.90;;;;;;4942916;28;20069;-84
2023/09/24 00:06:07;;;;;;;16.33;14.45;;;11.60;99.90;;;;;;4954361;28;20043;-84
2023/09/24 00:08:33;;;;;;;18.30;14.38;;;11.60;99.90;;;;;;4955165;28;20249;-84
2023/09/24 00:10:59;;;;;;;43.95;26.63;;;11.50;99.90;;;;;;4949903;28;20125;-84
2023/09/24 00:13:25;;;;;;;16.55;14.80;;;11.50;99.90;;;;;;4936292;28;20413;-84
2023/09/24 00:15:51;;;;;;;20.23;14.90;;;11.50;99.90;;;;;;4941548;28;20035;-84
2023/09/24 00:18:18;;;;;;;15.90;13.88;;;11.40;99.90;;;;;;4942403;28;20061;-84
2023/09/24 00:20:44;;;;;;;32.25;17.65;;;11.30;99.90;;;;;;4965695;28;20130;-85
2023/09/24 00:23:19;;;;;;;21.88;15.68;;;11.30;99.90;;;;;;4941185;28;20505;-84
2023/09/24 00:25:45;;;;;;;45.05;22.92;;;11.20;99.90;;;;;;4967878;28;20417;-84
2023/09/24 00:28:11;;;;;;;37.72;27.20;;;11.20;99.90;;;;;;4943611;28;20051;-84
2023/09/24 00:30:36;;;;;;;45.35;21.13;;;11.10;99.90;;;;;;4949338;28;20499;-84
2023/09/24 00:33:03;;;;;;;26.00;16.13;;;11.10;99.90;;;;;;4951841;29;20035;-84
2023/09/24 00:35:30;;;;;;;24.33;15.40;;;11.10;99.90;;;;;;4964302;28;20054;-84
2023/09/24 00:37:56;;;;;;;21.50;13.85;;;11.00;99.90;;;;;;4956783;28;20433;-84
2023/09/24 00:40:22;;;;;;;13.75;12.30;;;11.00;99.90;;;;;;4953489;28;20042;-84
2023/09/24 00:42:50;;;;;;;33.78;21.15;;;10.90;99.90;;;;;;4939167;28;20133;-84
2023/09/24 00:45:15;;;;;;;27.45;16.25;;;10.90;99.90;;;;;;4946091;28;20042;-84
2023/09/24 00:47:46;;;;;;;40.03;23.58;;;10.80;99.90;;;;;;4957596;28;20061;-84
2023/09/24 00:50:14;;;;;;;42.92;23.65;;;10.80;99.90;;;;;;4938863;29;20039;-84
2023/09/24 00:52:42;;;;;;;25.88;18.13;;;10.80;99.90;;;;;;4932319;28;20082;-84
2023/09/24 00:55:10;;;;;;;32.95;20.15;;;10.80;99.90;;;;;;4945271;28;20405;-85
2023/09/24 00:57:35;;;;;;;17.83;16.02;;;10.80;99.90;;;;;;4956752;28;20089;-84
2023/09/24 01:00:11;;;;;;;17.25;14.70;;;10.80;99.90;;;;;;4952123;28;20039;-84
2023/09/24 01:02:40;;;;;;;36.72;22.02;;;10.80;99.90;;;;;;4957193;28;20043;-85
2023/09/24 01:05:10;;;;;;;19.83;16.17;;;10.80;99.90;;;;;;4945804;28;20049;-84
2023/09/24 01:07:37;;;;;;;46.80;23.67;;;10.80;99.90;;;;;;4957107;28;20412;-85
2023/09/24 01:10:03;;;;;;;22.38;16.85;;;10.80;99.90;;;;;;4950298;28;20039;-85
2023/09/24 01:12:32;;;;;;;22.27;16.58;;;10.80;99.90;;;;;;4935911;28;20478;-85
2023/09/24 01:14:57;;;;;;;44.42;22.58;;;10.80;99.90;;;;;;4947741;28;20050;-85
2023/09/24 01:17:26;;;;;;;56.33;26.42;;;10.80;99.90;;;;;;4954899;28;20039;-85
2023/09/24 01:19:53;;;;;;;18.90;16.52;;;10.80;99.90;;;;;;4954254;28;20042;-85
2023/09/24 01:22:19;;;;;;;28.55;19.77;;;10.80;99.90;;;;;;4956791;28;20050;-85
2023/09/24 01:24:45;;;;;;;21.52;15.63;;;10.80;99.90;;;;;;4947128;28;20041;-85
2023/09/24 01:27:10;;;;;;;25.23;17.77;;;10.80;99.90;;;;;;4952828;28;20415;-85
2023/09/24 01:29:36;;;;;;;20.20;16.15;;;10.70;99.90;;;;;;4949653;28;20031;-85
2023/09/24 01:32:04;;;;;;;22.35;16.88;;;10.70;99.90;;;;;;4961597;28;20071;-85
2023/09/24 01:34:30;;;;;;;18.08;13.77;;;10.70;99.90;;;;;;4945975;28;20042;-85
2023/09/24 01:36:55;;;;;;;23.48;15.23;;;10.70;99.90;;;;;;4950706;28;20042;-85
2023/09/24 01:39:26;;;;;;;42.22;21.58;;;10.70;99.90;;;;;;4953899;28;20041;-85
2023/09/24 01:41:51;;;;;;;21.52;14.63;;;10.60;99.90;;;;;;4939318;28;20501;-85
2023/09/24 01:44:21;;;;;;;14.80;12.43;;;10.60;99.90;;;;;;4930108;28;20050;-84
2023/09/24 01:46:47;;;;;;;29.77;16.65;;;10.60;99.90;;;;;;4937100;29;20038;-85
2023/09/24 01:49:13;;;;;;;14.73;13.15;;;10.50;99.90;;;;;;4943766;28;20049;-85
2023/09/24 01:51:39;;;;;;;17.30;12.48;;;10.50;99.90;;;;;;4940832;28;20125;-85
2023/09/24 01:54:05;;;;;;;19.80;11.48;;;10.40;99.90;;;;;;4955341;28;20097;-85
2023/09/24 01:56:30;;;;;;;23.23;15.30;;;10.40;99.90;;;;;;4941575;28;20050;-85
2023/09/24 01:58:56;;;;;;;20.83;16.00;;;10.40;99.90;;;;;;4946675;28;20074;-85
2023/09/24 02:01:22;;;;;;;13.85;10.82;;;10.30;99.90;;;;;;4949074;28;20045;-85
2023/09/24 02:03:48;;;;;;;15.05;11.80;;;10.30;99.90;;;;;;4940404;28;20432;-85
2023/09/24 02:06:14;;;;;;;24.77;13.57;;;10.20;99.90;;;;;;4923328;29;20131;-85
2023/09/24 02:08:40;;;;;;;23.85;15.73;;;10.20;99.90;;;;;;4927949;28;20038;-85
2023/09/24 02:11:06;;;;;;;14.93;11.32;;;10.10;99.90;;;;;;4950012;28;20038;-85
2023/09/24 02:13:31;;;;;;;17.48;12.38;;;10.10;99.90;;;;;;4956873;28;20457;-85
2023/09/24 02:16:00;;;;;;;16.92;11.98;;;10.00;99.90;;;;;;4939923;28;20401;-85
2023/09/24 02:18:32;;;;;;;18.17;12.88;;;10.00;99.90;;;;;;4951755;28;20062;-85
2023/09/24 02:20:59;;;;;;;27.65;18.13;;;10.00;99.90;;;;;;4942289;28;21413;-85
2023/09/24 02:23:25;;;;;;;17.73;14.25;;;9.90;99.90;;;;;;4940143;28;20039;-85
2023/09/24 02:25:51;;;;;;;28.30;17.40;;;9.90;99.90;;;;;;4939620;28;20039;-85
2023/09/24 02:28:18;;;;;;;18.13;12.82;;;9.90;99.90;;;;;;4939176;28;20093;-85
2023/09/24 02:30:44;;;;;;;16.83;12.38;;;9.90;99.90;;;;;;4963690;28;20076;-85
2023/09/24 02:33:09;;;;;;;19.27;14.85;;;9.90;99.90;;;;;;4938855;28;20078;-85
2023/09/24 02:35:36;;;;;;;22.17;16.45;;;9.80;99.90;;;;;;4946464;28;20300;-86
2023/09/24 02:38:02;;;;;;;27.30;15.80;;;9.80;99.90;;;;;;4950978;28;20093;-85
2023/09/24 02:40:28;;;;;;;35.42;17.58;;;9.80;99.90;;;;;;4945921;28;20046;-85
2023/09/24 02:42:56;;;;;;;30.73;17.98;;;9.80;99.90;;;;;;4939855;28;20512;-86
2023/09/24 02:45:22;;;;;;;30.17;19.23;;;9.80;99.90;;;;;;4943277;28;20461;-86
2023/09/24 02:47:49;;;;;;;16.38;13.52;;;9.70;99.90;;;;;;4927186;29;20046;-86
2023/09/24 02:50:22;;;;;;;19.45;14.85;;;9.70;99.90;;;;;;4936316;28;20081;-85
2023/09/24 02:52:48;;;;;;;;;;;9.70;99.90;;;;;;4946622;28;20187;-86
2023/09/24 02:55:15;;;;;;;16.73;13.95;;;9.70;99.90;;;;;;4934258;28;20020;-86
2023/09/24 02:57:42;;;;;;;22.17;16.52;;;9.70;99.90;;;;;;4964018;28;20074;-86
2023/09/24 03:00:16;;;;;;;19.27;14.40;;;9.70;99.90;;;;;;4942883;28;20121;-85
2023/09/24 03:02:42;;;;;;;33.95;21.00;;;9.60;99.90;;;;;;4948191;28;20125;-86
2023/09/24 03:05:26;;;;;;;25.55;18.73;;;9.60;99.90;;;;;;4958653;28;20125;-86
2023/09/24 03:07:54;;;;;;;39.13;20.25;;;9.60;99.90;;;;;;4943390;28;20035;-86
2023/09/24 03:10:21;;;;;;;22.55;16.10;;;9.60;99.90;;;;;;4946706;28;20035;-86
2023/09/24 03:12:47;;;;;;;38.88;19.50;;;9.60;99.90;;;;;;4963562;28;20375;-86
2023/09/24 03:15:13;;;;;;;47.20;22.77;;;9.50;99.90;;;;;;4930091;29;20039;-86
2023/09/24 03:17:40;;;;;;;23.25;17.33;;;9.50;99.90;;;;;;4940102;28;20443;-86
2023/09/24 03:20:19;;;;;;;35.38;23.02;;;9.50;99.90;;;;;;4947490;28;20042;-86
2023/09/24 03:22:53;;;;;;;24.33;18.77;;;9.40;99.90;;;;;;4941156;28;20093;-86
2023/09/24 03:25:21;;;;;;;28.50;20.60;;;9.40;99.90;;;;;;4953829;28;20046;-86
2023/09/24 03:27:48;;;;;;;59.45;27.73;;;9.40;99.90;;;;;;4942686;28;20130;-86
2023/09/24 03:30:14;;;;;;;42.70;25.70;;;9.40;99.90;;;;;;4952082;28;20034;-86
2023/09/24 03:32:41;;;;;;;43.30;26.25;;;9.40;99.90;;;;;;4950784;28;20409;-86
2023/09/24 03:35:10;;;;;;;36.50;24.42;;;9.40;99.90;;;;;;4934491;29;20139;-86
2023/09/24 03:37:43;;;;;;;39.90;23.70;;;9.40;99.90;;;;;;4949651;28;20084;-86
2023/09/24 03:40:12;;;;;;;30.45;23.40;;;9.40;99.90;;;;;;4962637;28;20078;-86
2023/09/24 03:42:38;;;;;;;32.97;23.30;;;9.40;99.90;;;;;;4950730;28;20128;-86
2023/09/24 03:45:06;;;;;;;27.98;21.60;;;9.40;99.90;;;;;;4941791;28;20131;-86
2023/09/24 03:47:32;;;;;;;26.70;20.45;;;9.30;99.90;;;;;;4939864;29;20043;-86
2023/09/24 03:49:57;;;;;;;60.53;28.17;;;9.40;99.90;;;;;;4932084;28;20035;-86
2023/09/24 03:52:23;;;;;;;28.88;21.60;;;9.40;99.90;;;;;;4951079;28;20069;-86
2023/09/24 03:54:49;;;;;;;39.55;24.15;;;9.30;99.90;;;;;;4943113;28;20030;-86
2023/09/24 03:57:15;;;;;;;60.65;31.55;;;9.40;99.90;;;;;;4950404;28;20034;-86
2023/09/24 03:59:40;;;;;;;28.05;21.70;;;9.30;99.90;;;;;;4943927;28;20470;-86
2023/09/24 04:02:07;;;;;;;29.85;20.65;;;9.30;99.90;;;;;;4950232;28;20038;-86
2023/09/24 04:04:36;;;;;;;57.85;30.63;;;9.30;99.90;;;;;;4939113;28;20105;-86
2023/09/24 04:07:03;;;;;;;31.95;24.35;;;9.30;99.90;;;;;;4933460;28;20043;-86
2023/09/24 04:09:32;;;;;;;44.95;27.65;;;9.30;99.90;;;;;;4944058;28;20480;-87
2023/09/24 04:12:02;;;;;;;38.80;24.63;;;9.30;99.90;;;;;;4965691;28;20043;-86
2023/09/24 04:14:28;;;;;;;26.48;20.90;;;9.30;99.90;;;;;;4956942;28;20049;-86
2023/09/24 04:16:55;;;;;;;61.42;30.58;;;9.30;99.90;;;;;;4949768;28;20035;-86
2023/09/24 04:19:21;;;;;;;28.98;22.88;;;9.20;99.90;;;;;;4940449;28;20073;-86
2023/09/24 04:21:46;;;;;;;41.80;28.10;;;9.20;99.90;;;;;;4949579;28;20038;-87
2023/09/24 04:24:13;;;;;;;60.35;32.40;;;9.20;99.90;;;;;;4941997;28;20047;-86
2023/09/24 04:26:40;;;;;;;41.92;27.92;;;9.10;99.90;;;;;;4948836;28;20082;-86
2023/09/24 04:29:06;;;;;;;81.80;40.55;;;9.10;99.90;;;;;;4945696;29;20632;-86
2023/09/24 04:31:31;;;;;;;39.47;27.27;;;9.10;99.90;;;;;;4946332;28;20130;-86
2023/09/24 04:33:57;;;;;;;67.78;35.50;;;9.10;99.90;;;;;;4952254;28;20077;-86
2023/09/24 04:36:23;;;;;;;59.45;34.85;;;9.10;99.90;;;;;;4941797;28;20633;-86
2023/09/24 04:38:49;;;;;;;55.75;33.85;;;9.10;99.90;;;;;;4938334;28;20043;-87
2023/09/24 04:41:17;;;;;;;35.33;26.65;;;9.00;99.90;;;;;;4947012;28;20504;-86
2023/09/24 04:43:43;;;;;;;62.60;37.88;;;9.00;99.90;;;;;;4942128;28;20035;-87
2023/09/24 04:46:09;;;;;;;41.58;29.00;;;9.00;99.90;;;;;;4941571;28;20410;-87
2023/09/24 04:48:35;;;;;;;38.25;30.48;;;9.00;99.90;;;;;;4956501;28;20043;-86
2023/09/24 04:51:01;;;;;;;38.58;29.83;;;9.00;99.90;;;;;;4944644;28;20082;-87
2023/09/24 04:53:28;;;;;;;75.20;38.47;;;9.00;99.90;;;;;;4963807;28;20117;-87
2023/09/24 04:55:54;;;;;;;45.35;32.30;;;9.00;99.90;;;;;;4940021;28;20082;-86
2023/09/24 04:58:20;;;;;;;65.97;38.58;;;9.00;99.90;;;;;;4933981;28;20552;-86
2023/09/24 05:00:45;;;;;;;76.10;38.97;;;9.00;99.90;;;;;;4963430;28;20030;-86
2023/09/24 05:03:11;;;;;;;50.35;35.72;;;9.10;99.90;;;;;;4952982;28;20125;-86
2023/09/24 05:05:41;;;;;;;41.95;31.52;;;9.10;99.90;;;;;;4933265;28;20540;-86
2023/09/24 05:08:07;;;;;;;50.95;35.65;;;9.10;99.90;;;;;;4944644;28;20053;-87
2023/09/24 05:10:33;;;;;;;54.30;35.50;;;9.00;99.90;;;;;;4947642;28;20718;-86
2023/09/24 10:38:11;;;;;;;5.68;2.17;;;18.90;99.90;;;;;;4814445;29;20182;-81
2023/09/24 10:41:33;;;;;;;5.97;2.20;;;19.30;99.90;;;;;;4781605;29;20506;-83
2023/09/24 10:44:45;;;;;;;5.10;2.80;;;19.50;99.90;;;;;;4772735;29;20137;-81
2023/09/24 10:48:13;;;;;;;4.75;2.63;;;19.50;99.90;;;;;;4821105;29;20063;-83
2023/09/24 11:03:54;;;;;;;4.55;2.17;;;20.10;99.90;;;;;;5776008;23;20062;-80
2023/09/24 11:07:21;;;;;;;5.40;1.95;;;20.20;99.90;;;;;;4944748;29;20115;-82
2023/09/24 12:10:51;;;;;;;4.55;1.90;;;20.20;99.90;;;;;;4928292;29;20036;-82
2023/09/24 12:37:47;;;;;;;6.10;1.90;;;19.30;99.90;;;;;;5163129;23;20421;-83
2023/09/24 12:41:15;;;;;;;3.38;1.75;;;19.30;99.90;;;;;;4946581;28;20464;-82
2023/09/24 12:48:22;;;;;;;3.58;1.58;;;20.20;99.90;;;;;;4913961;29;20052;-82
2023/09/24 12:51:37;;;;;;;7.15;1.98;;;21.30;99.90;;;;;;4908865;29;20086;-82
2023/09/24 12:54:47;;;;;;;;;;;;;;;;;;;;;
2023/09/24 12:58:42;;;;;;;4.85;1.70;;;22.60;99.90;;;;;;4946987;29;20047;-82
2023/09/24 13:06:02;;;;;;;5.50;1.75;;;23.70;99.90;;;;;;4785780;30;20054;-81
2023/09/24 13:20:16;;;;;;;4.55;1.70;;;23.30;99.90;;;;;;4717616;30;20389;-85
2023/09/24 13:27:21;;;;;;;5.72;2.08;;;23.30;99.90;;;;;;4742697;30;20047;-83
2023/09/24 13:36:08;;;;;;;4.57;1.33;;;22.80;99.90;;;;;;4981153;23;20070;-81
2023/09/24 13:38:56;;;;;;;3.70;1.50;;;22.50;99.90;;;;;;4903681;29;20039;-81
2023/09/24 13:45:13;;;;;;;3.97;1.67;;;22.10;99.90;;;;;;5122015;23;20518;-83
2023/09/24 13:48:35;;;;;;;6.05;2.10;;;21.80;99.90;;;;;;4902943;29;20143;-82
2023/09/24 13:54:53;;;;;;;4.57;1.70;;;20.80;99.90;;;;;;4887416;23;20056;-83
2023/09/24 13:57:20;;;;;;;5.25;2.15;;;20.30;99.90;;;;;;4949588;29;20410;-83
2023/09/24 13:59:48;;;;;;;4.97;1.70;;;20.10;99.90;;;;;;4937007;28;20050;-83
2023/09/24 14:02:15;;;;;;;5.28;1.70;;;19.90;99.90;;;;;;4954559;28;20106;-83
2023/09/24 14:04:41;;;;;;;4.50;1.58;;;19.70;99.90;;;;;;4938263;28;20042;-83
2023/09/24 14:07:07;;;;;;;6.25;1.70;;;19.50;99.90;;;;;;4957061;28;20043;-84
2023/09/24 14:12:24;;;;;;;4.10;1.70;;;19.20;99.90;;;;;;4945592;28;20039;-84
2023/09/24 14:14:52;;;;;;;4.32;2.03;;;19.10;99.90;;;;;;4954638;28;20453;-85
2023/09/24 14:17:18;;;;;;;7.63;2.17;;;19.00;99.90;;;;;;4952916;28;20485;-84
2023/09/24 14:19:44;;;;;;;3.83;1.80;;;18.90;99.90;;;;;;4937997;28;20054;-84
2023/09/24 14:22:10;;;;;;;3.80;2.00;;;18.80;99.90;;;;;;4953901;28;20298;-83
2023/09/24 14:24:36;;;;;;;5.35;1.90;;;18.70;99.90;;;;;;4967091;28;20065;-84
2023/09/24 14:27:02;;;;;;;4.20;2.10;;;18.60;99.90;;;;;;4962730;28;20090;-84
2023/09/24 14:29:29;;;;;;;4.72;1.58;;;18.60;99.90;;;;;;4943934;28;20050;-84
2023/09/24 14:31:54;;;;;;;5.22;1.88;;;18.50;99.90;;;;;;4955873;28;20046;-84
2023/09/24 14:34:20;;;;;;;5.47;1.92;;;18.40;99.90;;;;;;4955910;28;20677;-84
2023/09/24 14:36:46;;;;;;;5.85;1.90;;;18.30;99.90;;;;;;4953254;28;20485;-83
2023/09/24 14:39:11;;;;;;;4.03;1.80;;;18.30;99.90;;;;;;4950980;28;20113;-84
2023/09/24 14:41:37;;;;;;;5.50;1.80;;;18.20;99.90;;;;;;4975033;28;20046;-84
2023/09/24 14:44:05;;;;;;;4.10;1.67;;;18.20;99.90;;;;;;4975086;28;20140;-84
2023/09/24 14:46:31;;;;;;;5.47;2.20;;;18.20;99.90;;;;;;4951902;28;20507;-84
2023/09/24 14:48:56;;;;;;;5.18;1.88;;;18.10;99.90;;;;;;4942384;28;20050;-84
2023/09/24 14:51:22;;;;;;;7.30;2.00;;;18.10;99.90;;;;;;4958589;28;20512;-83
2023/09/24 14:53:47;;;;;;;5.47;1.50;;;18.00;99.90;;;;;;4938836;28;20409;-83
2023/09/24 14:56:22;;;;;;;4.57;1.80;;;18.00;99.90;;;;;;4946048;28;20458;-83
2023/09/24 14:58:48;;;;;;;5.47;1.90;;;17.90;99.90;;;;;;4945897;28;20045;-82
2023/09/24 15:01:14;;;;;;;4.53;1.77;;;17.90;99.90;;;;;;4939787;28;20118;-81
2023/09/24 15:03:39;;;;;;;6.90;2.20;;;17.90;99.90;;;;;;4954927;28;20041;-83
2023/09/24 15:06:05;;;;;;;4.53;1.65;;;17.80;99.90;;;;;;4936654;28;20093;-83
2023/09/24 15:08:31;;;;;;;6.05;1.85;;;17.80;99.90;;;;;;4948355;28;20096;-83
2023/09/24 15:11:00;;;;;;;5.43;2.60;;;17.70;99.90;;;;;;4948214;29;20043;-83
2023/09/24 15:13:26;;;;;;;6.55;3.42;;;17.70;99.90;;;;;;4947265;28;20580;-84
2023/09/24 15:15:52;;;;;;;8.75;4.47;;;17.70;99.90;;;;;;4925977;28;20035;-82
2023/09/24 15:18:19;;;;;;;6.97;3.40;;;17.60;99.90;;;;;;4926778;28;20039;-84
2023/09/24 15:20:44;;;;;;;24.08;14.70;;;17.50;99.90;;;;;;4954564;28;20042;-83
2023/09/24 15:23:12;;;;;;;5.07;2.47;;;17.50;99.90;;;;;;4962138;28;20393;-83
2023/09/24 15:25:39;;;;;;;8.95;3.40;;;17.50;99.90;;;;;;4939469;28;20503;-84
2023/09/24 15:28:04;;;;;;;21.27;12.68;;;17.40;99.90;;;;;;4950401;28;20557;-83
2023/09/24 15:30:30;;;;;;;7.30;3.75;;;17.30;99.90;;;;;;4953012;28;20027;-83
2023/09/24 15:32:57;;;;;;;4.85;2.22;;;17.30;99.90;;;;;;4948291;28;20038;-83
2023/09/24 15:35:32;;;;;;;3.92;2.10;;;17.30;99.90;;;;;;4967957;28;20154;-84
2023/09/24 15:37:57;;;;;;;5.10;2.17;;;17.20;99.90;;;;;;4962307;28;20043;-83
2023/09/24 15:40:23;;;;;;;6.90;2.13;;;17.20;99.90;;;;;;4978290;28;20039;-83
2023/09/24 15:42:48;;;;;;;5.22;2.00;;;17.10;99.90;;;;;;4978169;28;20042;-83
2023/09/24 15:45:14;;;;;;;5.40;2.08;;;17.10;99.90;;;;;;4963716;28;20047;-83
2023/09/24 15:47:40;;;;;;;11.30;8.27;;;17.00;99.90;;;;;;4955836;28;20073;-82
2023/09/24 15:50:12;;;;;;;8.40;6.50;;;17.00;99.90;;;;;;4956349;28;20401;-86
2023/09/24 15:52:42;;;;;;;8.33;5.00;;;17.00;99.90;;;;;;4940371;28;20039;-82
2023/09/24 15:55:08;;;;;;;5.97;2.80;;;17.00;99.90;;;;;;4937369;28;20117;-83
2023/09/24 15:57:35;;;;;;;7.90;4.18;;;17.00;99.90;;;;;;4958539;28;20038;-83
2023/09/24 16:00:01;;;;;;;5.45;2.00;;;16.90;99.90;;;;;;4957125;28;20043;-84
2023/09/24 16:02:27;;;;;;;5.75;2.00;;;16.90;99.90;;;;;;4974592;28;20038;-84
2023/09/24 16:04:52;;;;;;;3.85;1.80;;;16.80;99.90;;;;;;4955345;28;20046;-84
2023/09/24 16:07:20;;;;;;;3.47;1.98;;;16.80;99.90;;;;;;4960532;28;20456;-83
2023/09/24 16:09:46;;;;;;;5.82;2.13;;;16.70;99.90;;;;;;4949176;28;20047;-84
2023/09/24 16:12:12;;;;;;;5.10;2.10;;;16.70;99.90;;;;;;4939183;29;20508;-84
2023/09/24 16:14:38;;;;;;;4.72;1.90;;;16.70;99.90;;;;;;4922899;29;20035;-86
2023/09/24 16:17:04;;;;;;;4.57;1.65;;;16.60;99.90;;;;;;4939282;29;20457;-84
2023/09/24 16:19:30;;;;;;;4.90;2.05;;;16.50;99.90;;;;;;4957001;28;20064;-85
2023/09/24 16:21:55;;;;;;;4.70;1.98;;;16.50;99.90;;;;;;4971991;28;20555;-85
2023/09/24 16:24:21;;;;;;;4.95;2.17;;;16.40;99.90;;;;;;4961324;28;20105;-84
2023/09/24 16:26:47;;;;;;;4.20;1.98;;;16.40;99.90;;;;;;4977132;28;20038;-84
2023/09/24 16:29:15;;;;;;;4.78;1.95;;;16.30;99.90;;;;;;4958109;28;20045;-84
2023/09/24 16:31:41;;;;;;;5.00;2.00;;;16.30;99.90;;;;;;4961951;28;20497;-84
2023/09/24 16:34:06;;;;;;;4.95;2.13;;;16.30;99.90;;;;;;4977442;28;20045;-85
2023/09/24 16:36:33;;;;;;;6.68;2.40;;;16.20;99.90;;;;;;4960097;28;20034;-84
2023/09/24 16:38:59;;;;;;;4.38;1.73;;;16.20;99.90;;;;;;4977517;28;20042;-85
2023/09/24 16:41:25;;;;;;;5.38;2.15;;;16.20;99.90;;;;;;4949257;28;20046;-85
2023/09/24 16:43:51;;;;;;;3.95;1.60;;;16.10;99.90;;;;;;4954742;28;20242;-84
2023/09/24 16:46:17;;;;;;;3.47;1.90;;;16.00;99.90;;;;;;4976717;28;20038;-84
2023/09/24 16:48:42;;;;;;;3.97;1.95;;;16.00;99.90;;;;;;4959065;28;20121;-85
2023/09/24 16:51:08;;;;;;;4.57;1.83;;;15.90;99.90;;;;;;4968179;28;20082;-84
2023/09/24 16:53:34;;;;;;;4.43;1.92;;;15.90;99.90;;;;;;4952367;28;20038;-84
2023/09/24 16:55:59;;;;;;;5.18;1.90;;;15.80;99.90;;;;;;4977214;28;20121;-84
2023/09/24 16:58:25;;;;;;;5.70;2.25;;;15.70;99.90;;;;;;4946223;28;20113;-85
2023/09/24 17:00:50;;;;;;;5.55;2.35;;;15.60;99.90;;;;;;4933943;29;20459;-84
2023/09/24 17:03:16;;;;;;;5.70;1.98;;;15.50;99.90;;;;;;4954226;28;20413;-84
2023/09/24 17:05:42;;;;;;;4.45;1.80;;;15.50;99.90;;;;;;4968752;28;20088;-85
2023/09/24 17:08:10;;;;;;;3.45;1.70;;;15.40;99.90;;;;;;4960977;28;20457;-84
2023/09/24 17:10:37;;;;;;;5.22;1.70;;;15.40;99.90;;;;;;4977052;28;20034;-84
2023/09/24 17:13:03;;;;;;;6.85;2.58;;;15.30;99.90;;;;;;4976529;28;20038;-84
2023/09/24 17:15:29;;;;;;;5.35;2.40;;;15.20;99.90;;;;;;4958488;28;21950;-84
2023/09/24 17:17:58;;;;;;;4.70;2.20;;;15.10;99.90;;;;;;4963060;28;20046;-84
2023/09/24 17:20:25;;;;;;;3.33;1.90;;;15.00;99.90;;;;;;4941525;28;20129;-84
2023/09/24 17:22:51;;;;;;;4.50;1.65;;;15.00;99.90;;;;;;4942042;28;20043;-84
2023/09/24 17:25:17;;;;;;;4.07;1.90;;;14.90;99.90;;;;;;4957705;28;20097;-84
2023/09/24 17:27:43;;;;;;;3.85;1.75;;;14.80;99.90;;;;;;4942020;28;20038;-84
2023/09/24 17:30:10;;;;;;;4.43;1.80;;;14.70;99.90;;;;;;4950399;29;20048;-84
2023/09/24 17:32:35;;;;;;;4.85;2.20;;;14.70;99.90;;;;;;4964834;28;20282;-84
2023/09/24 17:35:01;;;;;;;5.47;2.10;;;14.50;99.90;;;;;;4956632;28;20564;-84
2023/09/24 17:37:27;;;;;;;4.53;2.08;;;14.40;99.90;;;;;;4941155;28;20393;-84
2023/09/24 17:39:52;;;;;;;5.57;2.10;;;14.40;99.90;;;;;;4941327;28;20046;-85
2023/09/24 17:42:18;;;;;;;5.18;2.10;;;14.40;99.90;;;;;;4940543;28;20508;-84
2023/09/24 17:44:43;;;;;;;3.00;1.90;;;14.20;99.90;;;;;;4943929;28;20132;-84
2023/09/24 17:47:09;;;;;;;2.53;1.52;;;14.10;99.90;;;;;;4957302;28;20097;-84
2023/09/24 17:49:34;;;;;;;2.85;1.83;;;14.00;99.90;;;;;;4966246;28;20511;-84
2023/09/24 17:52:00;;;;;;;4.55;2.10;;;14.00;99.90;;;;;;4959794;28;20404;-84
2023/09/24 17:54:25;;;;;;;3.38;1.77;;;13.90;99.90;;;;;;4968043;28;20513;-84
2023/09/24 17:56:51;;;;;;;3.35;1.60;;;13.80;99.90;;;;;;4967091;28;20488;-84
2023/09/24 17:59:18;;;;;;;3.25;1.98;;;13.80;99.90;;;;;;4975679;28;20093;-84
2023/09/24 18:01:44;;;;;;;4.25;2.22;;;13.70;99.90;;;;;;4959841;28;20511;-84
2023/09/24 18:04:09;;;;;;;3.58;2.08;;;13.70;99.90;;;;;;4971521;28;20050;-85
2023/09/24 18:06:35;;;;;;;4.93;2.00;;;13.60;99.90;;;;;;4946675;28;20034;-85
2023/09/24 18:09:02;;;;;;;4.10;2.13;;;13.60;99.90;;;;;;4928323;28;20091;-83
2023/09/24 18:11:28;;;;;;;9.65;3.00;;;13.60;99.90;;;;;;4934786;28;20437;-83
2023/09/24 18:13:53;;;;;;;6.07;2.63;;;13.50;99.90;;;;;;4955207;28;20042;-81
2023/09/24 18:16:19;;;;;;;6.35;2.38;;;13.40;99.90;;;;;;4958868;28;20405;-80
2023/09/24 18:18:46;;;;;;;9.82;7.40;;;13.40;99.90;;;;;;4946854;28;20282;-80
2023/09/24 18:21:18;;;;;;;7.82;3.05;;;13.30;99.90;;;;;;4956205;28;20197;-80
2023/09/24 18:23:44;;;;;;;15.68;12.75;;;13.30;99.90;;;;;;4955917;28;20054;-80
2023/09/24 18:26:09;;;;;;;9.60;6.22;;;13.20;99.90;;;;;;4955633;28;20129;-80
2023/09/24 18:28:35;;;;;;;11.52;6.43;;;13.20;99.90;;;;;;4937943;28;20115;-80
2023/09/24 18:31:00;;;;;;;6.85;3.50;;;13.20;99.90;;;;;;4953156;28;20062;-82
2023/09/24 18:33:26;;;;;;;4.80;2.65;;;13.20;99.90;;;;;;4952071;28;20383;-81
2023/09/24 18:35:56;;;;;;;4.80;2.53;;;13.20;99.90;;;;;;4944620;28;20035;-81
2023/09/24 18:38:21;;;;;;;5.25;2.55;;;13.20;99.90;;;;;;4942982;28;20181;-80
2023/09/24 18:40:47;;;;;;;4.57;2.45;;;13.10;99.90;;;;;;4942930;28;20141;-81
2023/09/24 18:43:13;;;;;;;5.55;2.63;;;13.20;99.90;;;;;;4963444;28;20038;-81
2023/09/24 18:45:39;;;;;;;4.10;2.50;;;13.20;99.90;;;;;;4974661;28;20112;-81
2023/09/24 18:48:05;;;;;;;6.22;2.80;;;13.10;99.90;;;;;;4969731;28;20055;-81
2023/09/24 18:50:33;;;;;;;5.22;2.78;;;13.10;99.90;;;;;;4965694;28;20086;-81
2023/09/24 18:52:59;;;;;;;4.28;2.88;;;13.10;99.90;;;;;;4969551;28;20081;-81
2023/09/24 18:55:24;;;;;;;4.95;3.17;;;13.00;99.90;;;;;;4958310;28;20073;-80
2023/09/24 18:57:50;;;;;;;4.63;3.00;;;13.00;99.90;;;;;;4950941;28;20031;-80
2023/09/24 19:00:16;;;;;;;9.38;3.67;;;13.00;99.90;;;;;;4948376;28;20142;-80
2023/09/24 19:02:45;;;;;;;6.28;3.40;;;12.90;99.90;;;;;;4955516;28;20039;-80
2023/09/24 19:05:13;;;;;;;5.40;3.03;;;12.90;99.90;;;;;;4954995;28;20116;-80
2023/09/24 19:07:38;;;;;;;5.78;3.30;;;12.90;99.90;;;;;;4962394;28;20034;-80
2023/09/24 19:10:04;;;;;;;6.07;3.50;;;12.90;99.90;;;;;;4968048;28;20202;-80
2023/09/24 19:12:30;;;;;;;8.02;3.47;;;12.90;99.90;;;;;;4958060;28;20494;-80
2023/09/24 19:14:56;;;;;;;5.03;3.45;;;12.80;99.90;;;;;;4935329;29;20035;-80
2023/09/24 19:17:22;;;;;;;6.20;3.83;;;12.80;99.90;;;;;;4953139;28;20038;-80
2023/09/24 19:19:47;;;;;;;8.70;3.85;;;12.70;99.90;;;;;;4971124;28;20180;-80
2023/09/24 19:22:13;;;;;;;7.53;3.83;;;12.70;99.90;;;;;;4978374;28;20408;-80
2023/09/24 19:24:38;;;;;;;7.60;4.13;;;12.60;99.90;;;;;;4953666;28;20493;-80
2023/09/24 19:27:04;;;;;;;9.27;4.10;;;12.60;99.90;;;;;;4958727;28;20049;-80
2023/09/24 19:29:30;;;;;;;6.80;4.22;;;12.60;99.90;;;;;;4935337;28;20046;-80
2023/09/24 19:31:56;;;;;;;6.75;3.97;;;12.50;99.90;;;;;;4944913;28;20043;-80
2023/09/24 19:34:23;;;;;;;7.60;4.22;;;12.50;99.90;;;;;;4944997;28;20527;-80
2023/09/24 19:36:49;;;;;;;6.78;4.65;;;12.50;99.90;;;;;;4942616;28;20046;-80
2023/09/24 19:39:16;;;;;;;6.53;4.88;;;12.40;99.90;;;;;;4948847;28;20069;-81
2023/09/24 19:41:42;;;;;;;7.40;4.53;;;12.40;99.90;;;;;;4965819;28;20509;-80
2023/09/24 19:44:10;;;;;;;5.25;3.92;;;12.30;99.90;;;;;;4958175;28;20045;-80
2023/09/24 19:46:37;;;;;;;9.65;5.35;;;12.30;99.90;;;;;;4941748;28;20043;-80
2023/09/24 19:49:03;;;;;;;8.52;4.90;;;12.30;99.90;;;;;;4969766;28;20555;-80
2023/09/24 19:51:28;;;;;;;7.60;4.88;;;12.30;99.90;;;;;;4977685;28;20039;-80
2023/09/24 19:53:54;;;;;;;6.38;4.40;;;12.30;99.90;;;;;;4941600;28;20046;-80
2023/09/24 19:56:20;;;;;;;6.15;3.72;;;12.30;99.90;;;;;;4933820;28;20039;-81
2023/09/24 19:58:46;;;;;;;7.43;5.03;;;12.30;99.90;;;;;;4949288;28;20515;-80
2023/09/24 20:01:11;;;;;;;8.68;4.78;;;12.20;99.90;;;;;;4958355;28;20050;-81
2023/09/24 20:03:37;;;;;;;8.77;5.65;;;12.20;99.90;;;;;;4936119;28;20450;-81
2023/09/24 20:06:07;;;;;;;5.22;4.22;;;12.20;99.90;;;;;;4934077;28;20489;-81
2023/09/24 20:08:34;;;;;;;7.57;4.80;;;12.20;99.90;;;;;;4952727;28;20385;-81
2023/09/24 20:11:03;;;;;;;7.70;4.25;;;12.20;99.90;;;;;;4977231;28;20042;-80
2023/09/24 20:13:37;;;;;;;7.90;4.43;;;12.20;99.90;;;;;;4961013;28;20050;-80
2023/09/24 20:16:02;;;;;;;7.00;4.22;;;12.20;99.90;;;;;;4956137;28;20054;-80
2023/09/24 20:18:28;;;;;;;5.60;4.07;;;12.20;99.90;;;;;;4954678;28;20050;-82
2023/09/24 20:20:53;;;;;;;5.30;4.40;;;12.20;99.90;;;;;;4941799;28;20043;-82
2023/09/24 20:23:19;;;;;;;7.57;4.38;;;12.20;99.90;;;;;;4958716;28;20383;-82
2023/09/24 20:25:48;;;;;;;7.30;4.60;;;12.20;99.90;;;;;;4956953;28;20383;-80
2023/09/24 20:28:13;;;;;;;7.72;5.05;;;12.20;99.90;;;;;;4926696;28;20070;-81
2023/09/24 20:30:44;;;;;;;9.68;4.57;;;12.20;99.90;;;;;;4957706;28;20109;-81
2023/09/24 20:33:09;;;;;;;7.82;4.18;;;12.30;99.90;;;;;;4956964;28;20050;-81
2023/09/24 20:35:36;;;;;;;8.45;4.85;;;12.20;99.90;;;;;;4962255;28;20045;-82